createdAt,value
2018-05-21T00:00:12.729Z,98.90
2018-05-21T00:02:49.560Z,99.30
2018-05-21T00:05:49.294Z,99.60
2018-05-21T00:08:18.449Z,99.60
2018-05-21T00:10:47.523Z,99.70
2018-05-21T00:13:18.658Z,99.90
2018-05-21T00:15:47.921Z,99.90
2018-05-21T00:18:21.480Z,99.90
2018-05-21T00:20:51.692Z,99.90
2018-05-21T00:23:25.169Z,99.90
2018-05-21T00:25:56.846Z,99.90
2018-05-21T00:28:26.053Z,99.90
2018-05-21T00:30:55.589Z,99.90
2018-05-21T00:33:24.742Z,99.90
2018-05-21T00:35:53.951Z,99.90
2018-05-21T00:38:39.923Z,99.90
2018-05-21T00:41:10.631Z,99.90
2018-05-21T00:43:40.285Z,99.90
2018-05-21T00:46:15.497Z,99.90
2018-05-21T00:48:45.297Z,99.90
2018-05-21T00:51:14.689Z,99.90
2018-05-21T00:53:43.841Z,99.90
2018-05-21T00:56:25.430Z,99.90
2018-05-21T00:58:56.534Z,99.90
2018-05-21T01:01:25.846Z,99.90
2018-05-21T01:04:05.707Z,99.90
2018-05-21T01:06:34.957Z,99.90
2018-05-21T01:09:07.557Z,99.90
2018-05-21T01:11:37.824Z,99.90
2018-05-21T01:14:07.385Z,99.90
2018-05-21T01:16:38.066Z,99.90
2018-05-21T01:19:09.352Z,99.90
2018-05-21T01:21:39.237Z,99.90
2018-05-21T01:24:10.783Z,99.90
2018-05-21T01:26:40.844Z,99.90
2018-05-21T01:29:10.936Z,99.90
2018-05-21T01:31:41.635Z,99.90
2018-05-21T01:37:09.363Z,99.90
2018-05-21T01:39:42.085Z,99.90
2018-05-21T01:42:13.267Z,99.90
2018-05-21T01:50:31.022Z,99.90
2018-05-21T01:53:00.228Z,99.90
2018-05-21T01:55:29.564Z,99.90
2018-05-21T01:57:59.017Z,99.90
2018-05-21T02:00:29.566Z,99.90
2018-05-21T02:02:58.930Z,99.90
2018-05-21T02:05:28.827Z,99.90
2018-05-21T02:08:01.814Z,99.90
2018-05-21T02:10:33.521Z,99.90
2018-05-21T02:13:02.841Z,99.90
2018-05-21T02:15:32.237Z,99.90
2018-05-21T02:18:01.534Z,99.90
2018-05-21T02:20:30.991Z,99.90
2018-05-21T02:23:00.336Z,99.90
2018-05-21T02:25:31.873Z,99.90
2018-05-21T02:28:01.439Z,99.90
2018-05-21T02:30:30.819Z,99.90
2018-05-21T02:33:00.700Z,99.90
2018-05-21T02:35:31.057Z,99.90
2018-05-21T02:38:00.417Z,99.90
2018-05-21T02:40:29.801Z,99.90
2018-05-21T02:42:59.149Z,99.90
2018-05-21T02:45:29.203Z,99.90
2018-05-21T02:47:59.307Z,99.90
2018-05-21T02:50:28.608Z,99.90
2018-05-21T02:52:58.323Z,99.90
2018-05-21T02:55:28.385Z,99.90
2018-05-21T02:58:00.517Z,99.90
2018-05-21T03:00:30.453Z,99.90
2018-05-21T03:03:01.660Z,99.90
2018-05-21T03:05:31.822Z,99.90
2018-05-21T03:08:02.075Z,99.90
2018-05-21T03:10:32.673Z,99.90
2018-05-21T03:13:02.124Z,99.90
2018-05-21T03:15:31.424Z,99.90
2018-05-21T03:18:00.661Z,99.90
2018-05-21T03:20:30.938Z,99.90
2018-05-21T03:23:03.137Z,99.90
2018-05-21T03:25:34.004Z,99.90
2018-05-21T03:28:03.376Z,99.90
2018-05-21T03:30:32.641Z,99.90
2018-05-21T03:33:03.232Z,99.90
2018-05-21T03:35:32.454Z,99.90
2018-05-21T03:38:02.790Z,99.90
2018-05-21T03:40:32.249Z,99.90
2018-05-21T03:43:01.366Z,99.90
2018-05-21T03:45:30.708Z,99.90
2018-05-21T03:47:59.831Z,99.90
2018-05-21T03:50:28.998Z,99.90
2018-05-21T03:52:58.934Z,99.90
2018-05-21T03:55:29.062Z,99.90
2018-05-21T03:57:58.220Z,99.90
2018-05-21T04:00:38.876Z,99.90
2018-05-21T04:03:19.895Z,99.90
2018-05-21T04:05:49.129Z,99.90
2018-05-21T04:08:18.270Z,99.90
2018-05-21T04:10:47.554Z,99.90
2018-05-21T04:13:18.241Z,99.90
2018-05-21T04:15:47.608Z,99.90
2018-05-21T04:18:16.814Z,99.90
2018-05-21T04:20:46.689Z,99.90
2018-05-21T04:23:16.861Z,99.90
2018-05-21T04:25:46.020Z,99.90
2018-05-21T04:28:15.285Z,99.90
2018-05-21T04:30:45.100Z,99.90
2018-05-21T04:33:14.793Z,99.90
2018-05-21T04:35:44.920Z,99.90
2018-05-21T04:38:15.016Z,99.90
2018-05-21T04:40:44.117Z,99.90
2018-05-21T04:43:14.397Z,99.90
2018-05-21T04:45:43.512Z,99.90
2018-05-21T04:48:15.097Z,99.90
2018-05-21T04:50:45.493Z,99.90
2018-05-21T04:53:15.141Z,99.90
2018-05-21T04:55:44.379Z,99.90
2018-05-21T04:58:13.728Z,99.90
2018-05-21T05:00:43.750Z,99.90
2018-05-21T05:03:14.644Z,99.90
2018-05-21T05:05:43.863Z,99.90
2018-05-21T05:08:14.043Z,99.90
2018-05-21T05:10:43.654Z,99.90
2018-05-21T05:13:13.732Z,99.90
2018-05-21T05:15:43.538Z,99.90
2018-05-21T05:18:13.533Z,99.90
2018-05-21T05:20:42.722Z,99.90
2018-05-21T05:23:11.878Z,99.90
2018-05-21T05:25:41.586Z,99.90
2018-05-21T05:28:11.398Z,99.90
2018-05-21T05:30:40.673Z,99.90
2018-05-21T05:33:09.935Z,99.90
2018-05-21T05:35:39.575Z,99.90
2018-05-21T05:38:08.756Z,99.90
2018-05-21T05:40:38.024Z,99.90
2018-05-21T05:43:07.380Z,99.90
2018-05-21T05:45:36.496Z,99.90
2018-05-21T05:48:06.983Z,99.90
2018-05-21T05:50:38.133Z,99.90
2018-05-21T05:53:07.361Z,99.90
2018-05-21T05:55:37.101Z,99.90
2018-05-21T05:58:07.058Z,99.90
2018-05-21T06:00:36.242Z,99.90
2018-05-21T06:03:05.349Z,99.90
2018-05-21T06:05:34.480Z,99.90
2018-05-21T06:08:03.807Z,99.90
2018-05-21T06:10:33.643Z,99.90
2018-05-21T06:13:02.795Z,99.90
2018-05-21T06:15:32.015Z,99.90
2018-05-21T06:18:02.821Z,99.90
2018-05-21T06:20:31.919Z,99.90
2018-05-21T06:23:01.077Z,99.90
2018-05-21T06:25:30.249Z,99.90
2018-05-21T06:27:59.341Z,99.90
2018-05-21T06:30:28.452Z,99.90
2018-05-21T06:32:57.597Z,99.90
2018-05-21T06:35:26.675Z,99.90
2018-05-21T06:38:05.118Z,99.90
2018-05-21T06:40:35.256Z,99.90
2018-05-21T06:43:04.391Z,99.90
2018-05-21T06:45:33.516Z,99.90
2018-05-21T06:48:03.451Z,99.90
2018-05-21T06:50:32.627Z,99.90
2018-05-21T06:53:02.538Z,99.90
2018-05-21T06:55:32.461Z,99.90
2018-05-21T06:58:03.396Z,99.90
2018-05-21T07:00:32.585Z,99.90
2018-05-21T07:03:01.864Z,99.90
2018-05-21T07:05:30.986Z,99.90
2018-05-21T07:08:00.376Z,99.90
2018-05-21T07:10:30.543Z,99.90
2018-05-21T07:12:59.604Z,99.90
2018-05-21T07:15:28.721Z,99.90
2018-05-21T07:17:58.548Z,99.90
2018-05-21T07:20:27.925Z,99.90
2018-05-21T07:22:57.805Z,99.90
2018-05-21T07:25:26.872Z,99.90
2018-05-21T07:27:56.389Z,99.90
2018-05-21T07:30:25.556Z,99.90
2018-05-21T07:32:54.672Z,99.90
2018-05-21T07:35:24.686Z,99.90
2018-05-21T07:37:53.929Z,99.90
2018-05-21T07:40:23.991Z,99.90
2018-05-21T07:42:53.456Z,99.90
2018-05-21T07:45:23.946Z,99.90
2018-05-21T07:47:54.081Z,99.90
2018-05-21T07:50:23.183Z,99.90
2018-05-21T07:52:52.908Z,99.90
2018-05-21T07:55:22.034Z,99.90
2018-05-21T07:57:51.293Z,99.90
2018-05-21T08:00:20.436Z,99.90
2018-05-21T08:03:00.357Z,99.90
2018-05-21T08:05:29.519Z,99.90
2018-05-21T08:07:58.598Z,99.90
2018-05-21T08:10:28.626Z,99.90
2018-05-21T08:12:57.734Z,99.90
2018-05-21T08:15:26.889Z,99.90
2018-05-21T08:17:55.974Z,99.90
2018-05-21T08:20:25.074Z,99.90
2018-05-21T08:22:54.226Z,99.90
2018-05-21T08:25:31.100Z,99.90
2018-05-21T08:28:00.735Z,99.90
2018-05-21T08:30:29.864Z,99.90
2018-05-21T08:32:59.962Z,99.90
2018-05-21T08:35:29.973Z,99.90
2018-05-21T08:37:59.477Z,99.90
2018-05-21T08:40:28.661Z,99.90
2018-05-21T08:42:57.872Z,99.90
2018-05-21T08:45:27.775Z,99.90
2018-05-21T08:47:57.604Z,99.90
2018-05-21T08:50:26.837Z,99.90
2018-05-21T08:52:56.055Z,99.90
2018-05-21T08:55:25.162Z,99.90
2018-05-21T08:57:54.227Z,99.90
2018-05-21T09:00:23.284Z,99.90
2018-05-21T09:02:52.486Z,99.90
2018-05-21T09:05:21.595Z,99.90
2018-05-21T09:07:50.810Z,99.90
2018-05-21T09:10:19.964Z,99.90
2018-05-21T09:12:49.092Z,99.90
2018-05-21T09:15:18.218Z,99.90
2018-05-21T09:17:47.368Z,99.90
2018-05-21T09:20:16.480Z,99.90
2018-05-21T09:22:46.306Z,99.90
2018-05-21T09:25:15.401Z,99.90
2018-05-21T09:27:44.521Z,99.90
2018-05-21T09:30:13.762Z,99.90
2018-05-21T09:32:43.931Z,99.90
2018-05-21T09:35:13.047Z,99.90
2018-05-21T09:37:42.086Z,99.90
2018-05-21T09:40:11.699Z,99.90
2018-05-21T09:42:40.743Z,99.90
2018-05-21T09:45:09.832Z,99.90
2018-05-21T09:47:38.941Z,99.90
2018-05-21T09:50:08.014Z,99.90
2018-05-21T09:52:37.240Z,99.90
2018-05-21T09:55:06.416Z,99.90
2018-05-21T09:57:35.504Z,99.90
2018-05-21T10:00:04.805Z,99.90
2018-05-21T10:02:33.845Z,99.90
2018-05-21T10:05:02.988Z,99.90
2018-05-21T10:07:32.036Z,99.90
2018-05-21T10:10:01.130Z,99.90
2018-05-21T10:12:30.177Z,99.90
2018-05-21T10:14:59.424Z,99.90
2018-05-21T10:17:28.560Z,99.90
2018-05-21T10:19:57.640Z,99.90
2018-05-21T10:22:26.750Z,99.90
2018-05-21T10:24:55.898Z,99.90
2018-05-21T10:27:24.960Z,99.90
2018-05-21T10:29:54.063Z,99.90
2018-05-21T10:32:23.904Z,99.90
2018-05-21T10:34:53.005Z,99.90
2018-05-21T10:37:26.003Z,99.90
2018-05-21T10:39:55.145Z,99.90
2018-05-21T10:42:24.585Z,99.90
2018-05-21T10:44:53.754Z,99.90
2018-05-21T10:47:23.635Z,99.90
2018-05-21T10:49:52.685Z,99.90
2018-05-21T10:52:21.755Z,99.90
2018-05-21T10:54:51.576Z,99.90
2018-05-21T10:57:21.406Z,99.90
2018-05-21T10:59:50.818Z,99.90
2018-05-21T11:02:19.920Z,99.90
2018-05-21T11:04:49.105Z,99.90
2018-05-21T11:07:18.222Z,99.90
2018-05-21T11:09:47.821Z,99.90
2018-05-21T11:12:17.104Z,99.90
2018-05-21T11:14:46.329Z,99.90
2018-05-21T11:17:15.395Z,99.90
2018-05-21T11:19:44.616Z,99.90
2018-05-21T11:22:13.902Z,99.90
2018-05-21T11:24:43.207Z,99.90
2018-05-21T11:27:12.306Z,99.90
2018-05-21T11:29:41.382Z,99.90
2018-05-21T11:32:10.517Z,99.90
2018-05-21T11:34:39.638Z,99.90
2018-05-21T11:37:08.686Z,99.90
2018-05-21T11:39:37.839Z,99.90
2018-05-21T11:42:07.010Z,99.90
2018-05-21T11:44:38.916Z,99.90
2018-05-21T11:47:09.126Z,99.90
2018-05-21T11:49:38.736Z,99.90
2018-05-21T11:52:08.578Z,99.90
2018-05-21T11:54:37.700Z,99.90
2018-05-21T11:57:07.545Z,99.90
2018-05-21T11:59:36.750Z,99.90
2018-05-21T12:02:06.740Z,99.90
2018-05-21T12:04:36.571Z,99.90
2018-05-21T12:07:05.751Z,99.90
2018-05-21T12:09:35.555Z,99.90
2018-05-21T12:12:05.366Z,99.90
2018-05-21T12:14:35.434Z,99.90
2018-05-21T12:17:06.091Z,99.90
2018-05-21T12:19:35.481Z,99.90
2018-05-21T12:22:08.472Z,99.90
2018-05-21T12:24:37.676Z,99.90
2018-05-21T12:27:10.642Z,99.90
2018-05-21T12:29:39.772Z,99.90
2018-05-21T12:32:10.723Z,99.90
2018-05-21T12:34:41.668Z,99.90
2018-05-21T12:37:11.706Z,99.90
2018-05-21T12:39:41.108Z,99.90
2018-05-21T12:42:15.065Z,99.90
2018-05-21T12:44:46.402Z,99.90
2018-05-21T12:47:17.249Z,99.90
2018-05-21T12:49:46.585Z,99.90
2018-05-21T12:52:15.759Z,99.90
2018-05-21T12:54:47.202Z,99.90
2018-05-21T12:57:16.794Z,99.90
2018-05-21T12:59:46.028Z,99.90
2018-05-21T13:02:15.365Z,99.90
2018-05-21T13:04:44.521Z,99.90
2018-05-21T13:07:14.047Z,99.90
2018-05-21T13:09:43.355Z,99.90
2018-05-21T13:12:12.709Z,99.90
2018-05-21T13:14:42.692Z,99.90
2018-05-21T13:17:11.940Z,99.90
2018-05-21T13:19:41.668Z,99.90
2018-05-21T13:22:10.861Z,99.90
2018-05-21T13:24:40.332Z,99.90
2018-05-21T13:27:09.684Z,99.90
2018-05-21T13:29:39.076Z,99.90
2018-05-21T13:32:08.864Z,99.90
2018-05-21T13:34:44.427Z,99.90
2018-05-21T13:37:16.549Z,99.90
2018-05-21T13:39:48.418Z,99.90
2018-05-21T13:42:17.929Z,99.90
2018-05-21T13:44:47.522Z,99.90
2018-05-21T13:47:19.677Z,99.90
2018-05-21T13:49:50.612Z,99.90
2018-05-21T13:52:19.899Z,99.90
2018-05-21T13:54:49.103Z,99.90
2018-05-21T13:57:18.353Z,99.90
2018-05-21T13:59:48.289Z,99.30
2018-05-21T14:02:17.749Z,99.30
2018-05-21T14:09:26.491Z,98.30
2018-05-21T14:11:57.039Z,98.20
2018-05-21T14:14:27.602Z,97.30
2018-05-21T14:19:32.150Z,96.40
2018-05-21T14:22:02.967Z,96.00
2018-05-21T14:24:32.545Z,95.80
2018-05-21T14:27:08.654Z,94.90
2018-05-21T14:29:38.887Z,92.50
2018-05-21T14:32:09.498Z,92.40
2018-05-21T14:34:38.981Z,90.60
2018-05-21T14:37:09.043Z,86.00
2018-05-21T14:39:41.549Z,84.70
2018-05-21T14:42:15.245Z,82.10
2018-05-21T14:44:46.252Z,78.30
2018-05-21T14:47:47.008Z,78.30
2018-05-21T14:50:17.586Z,73.20
2018-05-21T14:57:57.986Z,69.70
2018-05-21T15:00:27.628Z,70.90
2018-05-21T15:02:56.909Z,71.30
2018-05-21T15:05:27.191Z,70.10
2018-05-21T15:08:25.370Z,70.70
2018-05-21T15:11:00.630Z,71.50
2018-05-21T15:13:32.836Z,77.50
2018-05-21T15:16:03.139Z,72.70
2018-05-21T15:18:33.148Z,72.20
2018-05-21T15:21:04.603Z,71.60
2018-05-21T15:23:35.967Z,68.20
2018-05-21T15:26:05.887Z,64.90
2018-05-21T15:28:37.866Z,60.10
2018-05-21T15:31:08.193Z,58.90
2018-05-21T15:33:40.900Z,56.50
2018-05-21T15:36:11.570Z,56.50
2018-05-21T15:38:46.901Z,53.20
2018-05-21T15:41:17.209Z,53.10
2018-05-21T15:43:51.923Z,50.50
2018-05-21T15:46:26.604Z,51.60
2018-05-21T15:48:57.768Z,51.70
2018-05-21T15:51:28.849Z,51.80
2018-05-21T15:53:58.522Z,48.10
2018-05-21T15:56:29.990Z,48.20
2018-05-21T15:59:03.520Z,46.70
2018-05-21T16:01:37.673Z,47.60
2018-05-21T16:04:11.306Z,46.90
2018-05-21T16:06:41.143Z,44.10
2018-05-21T16:09:19.292Z,45.50
2018-05-21T16:11:49.865Z,46.20
2018-05-21T16:14:21.235Z,50.40
2018-05-21T16:16:54.430Z,49.20
2018-05-21T16:19:28.127Z,48.70
2018-05-21T16:21:59.731Z,48.10
2018-05-21T16:24:29.548Z,48.70
2018-05-21T16:26:59.473Z,44.40
2018-05-21T16:29:30.034Z,45.50
2018-05-21T16:32:01.007Z,44.90
2018-05-21T16:34:30.517Z,45.60
2018-05-21T16:37:00.472Z,47.90
2018-05-21T16:39:32.306Z,49.70
2018-05-21T16:42:03.674Z,49.40
2018-05-21T16:44:34.176Z,49.40
2018-05-21T16:47:07.639Z,50.80
2018-05-21T16:49:37.767Z,47.60
2018-05-21T16:52:08.568Z,48.50
2018-05-21T16:54:39.990Z,48.70
2018-05-21T16:57:09.894Z,48.00
2018-05-21T16:59:39.309Z,48.00
2018-05-21T17:02:11.331Z,50.00
2018-05-21T17:04:43.033Z,52.50
2018-05-21T17:07:15.309Z,49.70
2018-05-21T17:12:28.565Z,48.90
2018-05-21T17:14:58.817Z,46.50
2018-05-21T17:17:36.833Z,46.50
2018-05-21T17:20:08.989Z,45.80
2018-05-21T17:22:40.641Z,45.80
2018-05-21T17:25:13.052Z,46.60
2018-05-21T17:27:42.563Z,45.00
2018-05-21T17:30:49.099Z,45.10
2018-05-21T17:33:19.178Z,45.10
2018-05-21T17:41:57.169Z,43.20
2018-05-21T17:44:33.831Z,45.20
2018-05-21T17:50:09.660Z,42.90
2018-05-21T17:55:21.658Z,41.50
2018-05-21T17:57:56.697Z,42.10
2018-05-21T18:03:05.306Z,43.70
2018-05-21T18:05:36.315Z,43.10
2018-05-21T18:08:06.505Z,40.20
2018-05-21T18:10:37.739Z,40.10
2018-05-21T18:13:08.505Z,39.20
2018-05-21T18:15:38.604Z,39.10
2018-05-21T18:18:09.197Z,39.30
2018-05-21T18:20:41.928Z,38.70
2018-05-21T18:23:34.446Z,38.70
2018-05-21T18:40:44.017Z,34.10
2018-05-21T18:43:13.839Z,34.50
2018-05-21T18:45:43.882Z,35.00
2018-05-21T18:48:13.986Z,33.20
2018-05-21T18:50:45.473Z,34.90
2018-05-21T18:53:14.816Z,34.80
2018-05-21T18:55:45.079Z,35.60
2018-05-21T18:58:14.438Z,33.90
2018-05-21T19:00:43.651Z,34.10
2018-05-21T19:03:13.753Z,34.60
2018-05-21T19:05:43.638Z,34.50
2018-05-21T19:08:15.442Z,33.80
2018-05-21T19:10:45.571Z,35.10
2018-05-21T19:13:15.222Z,35.00
2018-05-21T19:15:44.616Z,35.30
2018-05-21T19:18:13.757Z,34.40
2018-05-21T19:20:42.973Z,36.20
2018-05-21T19:23:12.843Z,37.40
2018-05-21T19:25:42.068Z,37.40
2018-05-21T19:28:12.656Z,36.60
2018-05-21T19:30:42.156Z,35.00
2018-05-21T19:33:12.226Z,35.80
2018-05-21T19:35:41.809Z,37.50
2018-05-21T19:38:13.452Z,36.70
2018-05-21T19:40:44.350Z,36.90
2018-05-21T19:43:14.817Z,36.20
2018-05-21T19:45:44.215Z,36.20
2018-05-21T19:48:15.537Z,36.80
2018-05-21T19:50:52.265Z,36.10
2018-05-21T19:53:21.426Z,36.20
2018-05-21T19:55:51.691Z,36.30
2018-05-21T19:58:21.019Z,35.30
2018-05-21T20:00:51.190Z,35.00
2018-05-21T20:03:20.479Z,34.90
2018-05-21T20:05:50.538Z,34.60
2018-05-21T20:08:20.115Z,34.60
2018-05-21T20:10:49.382Z,34.80
2018-05-21T20:13:19.217Z,35.90
2018-05-21T20:15:49.349Z,36.70
2018-05-21T20:18:29.635Z,36.80
2018-05-21T20:21:07.717Z,35.90
2018-05-21T20:23:42.100Z,36.50
2018-05-21T20:35:49.799Z,37.00
2018-05-21T20:38:28.941Z,37.70
2018-05-21T20:40:58.932Z,39.00
2018-05-21T20:43:32.951Z,38.20
2018-05-21T20:46:05.190Z,38.20
2018-05-21T20:48:36.941Z,38.60
2018-05-21T20:51:17.369Z,47.30
2018-05-21T20:53:47.543Z,56.80
2018-05-21T20:56:20.513Z,60.50
2018-05-21T20:58:52.563Z,63.30
2018-05-21T21:01:22.503Z,66.20
2018-05-21T21:03:55.340Z,70.50
2018-05-21T21:06:29.716Z,70.40
2018-05-21T21:08:59.100Z,70.70
2018-05-21T21:11:41.904Z,71.40
2018-05-21T21:14:13.604Z,71.60
2018-05-21T21:16:45.426Z,73.50
2018-05-21T21:19:16.126Z,73.50
2018-05-21T21:21:48.533Z,73.90
2018-05-21T21:24:18.048Z,74.70
2018-05-21T21:26:48.632Z,74.60
2018-05-21T21:29:17.855Z,74.70
2018-05-21T21:31:50.778Z,73.80
2018-05-21T21:34:19.980Z,73.00
2018-05-21T21:36:49.261Z,73.80
2018-05-21T21:39:20.242Z,73.00
2018-05-21T21:41:49.550Z,73.00
2018-05-21T21:44:21.727Z,75.70
2018-05-21T21:46:51.230Z,74.60
2018-05-21T21:49:20.535Z,77.00
2018-05-21T21:51:57.576Z,78.40
2018-05-21T21:54:29.282Z,79.70
2018-05-21T21:57:01.102Z,79.40
2018-05-21T21:59:30.762Z,81.00
2018-05-21T22:02:00.291Z,84.10
2018-05-21T22:04:30.328Z,84.30
2018-05-21T22:07:02.520Z,86.70
2018-05-21T22:09:37.707Z,88.60
2018-05-21T22:12:11.806Z,90.00
2018-05-21T22:14:41.016Z,90.50
2018-05-21T22:17:10.092Z,91.50
2018-05-21T22:19:39.220Z,91.60
2018-05-21T22:22:09.121Z,92.00
2018-05-21T22:24:39.238Z,93.20
2018-05-21T22:27:08.651Z,93.10
2018-05-21T22:29:38.122Z,93.80
2018-05-21T22:34:44.185Z,94.40
2018-05-21T22:37:13.456Z,94.60
2018-05-21T22:39:44.984Z,95.80
2018-05-21T22:42:15.517Z,96.60
2018-05-21T22:44:48.572Z,96.60
2018-05-21T22:47:17.927Z,97.10
2018-05-21T22:49:47.156Z,97.00
2018-05-21T22:52:16.550Z,97.20
2018-05-21T22:54:46.475Z,97.90
2018-05-21T22:57:15.741Z,97.90
2018-05-21T22:59:44.784Z,98.30
2018-05-21T23:02:13.949Z,99.50
2018-05-21T23:04:44.446Z,99.90
2018-05-21T23:07:13.663Z,99.90
2018-05-21T23:09:42.829Z,99.90
2018-05-21T23:12:12.005Z,99.90
2018-05-21T23:14:42.382Z,99.90
2018-05-21T23:17:11.809Z,99.90
2018-05-21T23:19:41.739Z,99.90
2018-05-21T23:22:16.609Z,99.90
2018-05-21T23:24:45.938Z,99.90
2018-05-21T23:27:16.175Z,99.90
2018-05-21T23:29:45.406Z,99.90
2018-05-21T23:32:14.684Z,99.90
2018-05-21T23:34:46.921Z,99.90
2018-05-21T23:37:16.078Z,99.90
2018-05-21T23:39:45.234Z,99.90
2018-05-21T23:42:14.477Z,99.90
2018-05-21T23:44:43.597Z,99.90
2018-05-21T23:47:13.352Z,99.90
2018-05-21T23:49:44.348Z,99.90
2018-05-21T23:52:13.548Z,99.90
2018-05-21T23:57:33.380Z,99.90
